Terminal Aerodrome Forecast
Issued by NWS

Home | Current Version | Previous Version | Text Only | Print | Product List | Glossary On
Versions: 1 2 3 4 5 6 7 8 9 10 11 12 13 14 15 16 17 18 19 20 21
923
FTUS46 KLOX 260220 AAA
TAFLGB
TAF AMD
KLGB 260220Z 2602/2624 28011KT P6SM SCT050
     FM260500 30006KT P6SM SCT012 BKN025
     FM260900 VRB03KT P6SM OVC020
     FM261600 21008KT P6SM SCT025 BKN040
     FM262300 29012KT P6SM FEW025 SCT040=

USA.gov is the U.S. government's official web portal to all federal, state and local government web resources and services.